Time;durP1;ratioP1;P1;durP2;ratioP2;P2;SDS_P1;SDS_P2;PMS_P1;PMS_P2;Temp;Humidity;BMP_temperature;BMP_pressure;BME280_temperature;BME280_humidity;BME280_pressure;Samples;Min_cycle;Max_cycle;Signal;HPM_P1;HPM_P2
2022/10/19 00:02:17;;;;;;;22.17;12.93;;;;;;;;;;4976757;28;20030;-80
2022/10/19 00:04:43;;;;;;;26.58;13.30;;;;;;;;;;4994736;28;20023;-79
2022/10/19 00:07:09;;;;;;;23.15;12.75;;;;;;;;;;4976959;28;20434;-79
2022/10/19 00:09:34;;;;;;;25.98;13.55;;;;;;;;;;4977589;28;20038;-79
2022/10/19 00:12:00;;;;;;;22.02;12.15;;;;;;;;;;4976911;28;20399;-79
2022/10/19 00:14:25;;;;;;;17.70;11.20;;;;;;;;;;4977044;28;20125;-79
2022/10/19 00:16:52;;;;;;;19.60;12.02;;;;;;;;;;4975986;28;20030;-78
2022/10/19 00:19:20;;;;;;;20.75;11.73;;;;;;;;;;4993308;28;20121;-78
2022/10/19 00:21:46;;;;;;;17.98;10.90;;;;;;;;;;4975493;28;20042;-77
2022/10/19 00:24:12;;;;;;;18.55;10.00;;;;;;;;;;4971973;28;20050;-78
2022/10/19 00:26:38;;;;;;;19.25;11.10;;;;;;;;;;4953067;28;20031;-78
2022/10/19 00:29:06;;;;;;;19.05;11.73;;;;;;;;;;4952897;29;20039;-78
2022/10/19 00:31:31;;;;;;;19.70;11.00;;;;;;;;;;4952697;28;20039;-78
2022/10/19 00:33:58;;;;;;;23.42;12.60;;;;;;;;;;4953254;29;20468;-78
2022/10/19 00:36:32;;;;;;;19.30;11.75;;;;;;;;;;4954582;28;20503;-78
2022/10/19 00:38:59;;;;;;;22.42;11.90;;;;;;;;;;4953283;29;20035;-78
2022/10/19 00:41:27;;;;;;;20.08;12.23;;;;;;;;;;4953961;29;20453;-78
2022/10/19 00:44:01;;;;;;;17.73;11.07;;;;;;;;;;4952974;29;20414;-78
2022/10/19 00:46:29;;;;;;;19.92;11.00;;;;;;;;;;4952491;29;20124;-78
2022/10/19 00:49:12;;;;;;;18.52;11.50;;;;;;;;;;4952389;28;20074;-78
2022/10/19 00:51:41;;;;;;;21.98;11.32;;;;;;;;;;4952807;29;20081;-78
2022/10/19 00:54:08;;;;;;;26.70;12.50;;;;;;;;;;4952682;28;20039;-78
2022/10/19 00:56:38;;;;;;;24.67;11.35;;;;;;;;;;4952530;29;20734;-78
2022/10/19 00:59:05;;;;;;;24.15;12.52;;;;;;;;;;4952320;28;20035;-78
2022/10/19 01:01:32;;;;;;;20.25;12.15;;;;;;;;;;4936595;29;20039;-78
2022/10/19 01:03:58;;;;;;;24.77;13.88;;;;;;;;;;4951791;28;20556;-77
2022/10/19 01:06:26;;;;;;;24.35;12.88;;;;;;;;;;4953249;28;20043;-78
2022/10/19 01:08:51;;;;;;;28.27;13.18;;;;;;;;;;4951842;29;20085;-78
2022/10/19 01:11:26;;;;;;;24.42;12.75;;;;;;;;;;4951905;28;20435;-78
2022/10/19 01:14:32;;;;;;;23.70;12.63;;;;;;;;;;4952297;29;20438;-78
2022/10/19 01:17:28;;;;;;;21.85;12.50;;;;;;;;;;4952451;29;20067;-78
2022/10/19 01:20:19;;;;;;;33.33;16.90;;;;;;;;;;4953639;29;20113;-79
2022/10/19 01:22:50;;;;;;;27.13;14.18;;;;;;;;;;4952118;29;20027;-79
2022/10/19 01:25:34;;;;;;;27.48;14.20;;;;;;;;;;4986494;28;20078;-79
2022/10/19 01:28:15;;;;;;;29.20;14.15;;;;;;;;;;4974371;28;20457;-79
2022/10/19 01:30:43;;;;;;;29.95;14.02;;;;;;;;;;4974704;28;20514;-78
2022/10/19 01:33:15;;;;;;;28.90;14.80;;;;;;;;;;4974637;28;20174;-78
2022/10/19 01:36:05;;;;;;;28.20;13.45;;;;;;;;;;4974217;28;20127;-78
2022/10/19 01:38:38;;;;;;;30.23;13.18;;;;;;;;;;4974316;28;20109;-78
2022/10/19 01:41:19;;;;;;;26.40;13.88;;;;;;;;;;4992318;28;20044;-79
2022/10/19 01:43:58;;;;;;;38.72;16.00;;;;;;;;;;4974586;28;20488;-78
2022/10/19 01:46:38;;;;;;;28.70;13.85;;;;;;;;;;4974725;28;20081;-78
2022/10/19 01:49:14;;;;;;;31.13;15.10;;;;;;;;;;4992667;28;20084;-77
2022/10/19 01:51:47;;;;;;;29.27;13.85;;;;;;;;;;4993270;28;20043;-79
2022/10/19 01:54:15;;;;;;;29.95;15.52;;;;;;;;;;4977114;28;20026;-78
2022/10/19 01:56:44;;;;;;;37.60;14.32;;;;;;;;;;4977084;28;20041;-78
2022/10/19 01:59:11;;;;;;;31.45;14.23;;;;;;;;;;4994975;28;20038;-78
2022/10/19 02:01:42;;;;;;;31.45;15.15;;;;;;;;;;4994424;28;20076;-78
2022/10/19 02:04:09;;;;;;;39.47;15.77;;;;;;;;;;4976941;28;20037;-79
2022/10/19 02:06:36;;;;;;;40.58;16.23;;;;;;;;;;4995086;28;20038;-78
2022/10/19 02:09:01;;;;;;;43.90;15.95;;;;;;;;;;4995550;28;20041;-78
2022/10/19 02:11:28;;;;;;;42.38;15.20;;;;;;;;;;5012367;28;20662;-78
2022/10/19 02:14:00;;;;;;;40.75;16.95;;;;;;;;;;5012517;28;20104;-79
2022/10/19 02:16:33;;;;;;;43.50;16.05;;;;;;;;;;5013068;28;20033;-77
2022/10/19 02:19:01;;;;;;;45.13;17.33;;;;;;;;;;5014441;28;20029;-78
2022/10/19 02:21:27;;;;;;;41.25;17.05;;;;;;;;;;4998297;28;20040;-78
2022/10/19 02:23:52;;;;;;;41.70;17.30;;;;;;;;;;5015196;28;20042;-78
2022/10/19 02:26:19;;;;;;;38.42;16.38;;;;;;;;;;4997440;28;20095;-78
2022/10/19 02:28:45;;;;;;;43.38;15.95;;;;;;;;;;4981198;28;20053;-78
2022/10/19 02:31:11;;;;;;;36.63;17.42;;;;;;;;;;5015039;28;20030;-78
2022/10/19 02:33:37;;;;;;;39.95;15.82;;;;;;;;;;4997229;28;20034;-78
2022/10/19 02:36:04;;;;;;;38.47;16.35;;;;;;;;;;4997025;28;20144;-77
2022/10/19 02:38:29;;;;;;;33.38;14.93;;;;;;;;;;4997586;28;20112;-78
2022/10/19 02:41:16;;;;;;;36.03;15.30;;;;;;;;;;5015693;28;20109;-79
2022/10/19 02:43:47;;;;;;;35.30;15.43;;;;;;;;;;4997443;28;20394;-78
2022/10/19 02:46:27;;;;;;;40.00;15.10;;;;;;;;;;5015666;28;20040;-78
2022/10/19 02:48:56;;;;;;;35.60;14.70;;;;;;;;;;4996950;28;20053;-77
2022/10/19 02:51:38;;;;;;;30.27;14.50;;;;;;;;;;4996998;28;20029;-80
2022/10/19 02:54:06;;;;;;;31.52;13.48;;;;;;;;;;4996834;28;20037;-78
2022/10/19 02:56:33;;;;;;;29.13;13.40;;;;;;;;;;4997404;28;20032;-78
2022/10/19 02:58:59;;;;;;;29.33;13.60;;;;;;;;;;4996650;28;20026;-78
2022/10/19 03:01:24;;;;;;;28.40;11.98;;;;;;;;;;5014201;28;20485;-79
2022/10/19 03:03:50;;;;;;;23.35;11.00;;;;;;;;;;5013979;28;20125;-78
2022/10/19 03:06:16;;;;;;;25.80;12.00;;;;;;;;;;4996334;28;20105;-77
2022/10/19 03:08:41;;;;;;;30.13;13.35;;;;;;;;;;5013958;28;20041;-77
2022/10/19 03:11:07;;;;;;;23.42;11.73;;;;;;;;;;4996288;28;20088;-80
2022/10/19 03:13:32;;;;;;;29.08;12.75;;;;;;;;;;4996251;28;20029;-77
2022/10/19 03:16:05;;;;;;;28.08;11.65;;;;;;;;;;4996349;28;20030;-78
2022/10/19 03:18:31;;;;;;;23.45;11.85;;;;;;;;;;4996910;28;20042;-77
2022/10/19 03:21:11;;;;;;;23.40;11.55;;;;;;;;;;4996609;28;20489;-78
2022/10/19 03:23:37;;;;;;;33.58;11.88;;;;;;;;;;4996171;28;20058;-79
2022/10/19 03:26:05;;;;;;;25.15;11.82;;;;;;;;;;4981971;28;20053;-79
2022/10/19 03:28:31;;;;;;;20.05;10.55;;;;;;;;;;4994570;28;20117;-78
2022/10/19 03:30:56;;;;;;;23.65;12.13;;;;;;;;;;4977437;28;20423;-78
2022/10/19 03:33:23;;;;;;;25.83;11.35;;;;;;;;;;4976590;28;20030;-78
2022/10/19 03:35:48;;;;;;;23.80;10.90;;;;;;;;;;4976340;28;20034;-79
2022/10/19 03:38:14;;;;;;;29.42;13.00;;;;;;;;;;4975819;28;20129;-79
2022/10/19 03:40:40;;;;;;;25.85;12.30;;;;;;;;;;4976788;28;20035;-78
2022/10/19 03:43:05;;;;;;;27.88;13.48;;;;;;;;;;4976861;28;20022;-78
2022/10/19 03:45:31;;;;;;;26.15;11.40;;;;;;;;;;5012425;28;20482;-77
2022/10/19 03:47:56;;;;;;;23.25;11.02;;;;;;;;;;4995001;28;20041;-79
2022/10/19 03:50:22;;;;;;;22.48;11.45;;;;;;;;;;4994834;28;20034;-78
2022/10/19 03:52:48;;;;;;;23.15;10.95;;;;;;;;;;5012626;28;20036;-79
2022/10/19 03:55:14;;;;;;;25.63;11.82;;;;;;;;;;4995023;28;20038;-78
2022/10/19 03:57:40;;;;;;;23.20;11.35;;;;;;;;;;4995336;28;20041;-78
2022/10/19 04:00:06;;;;;;;24.45;10.77;;;;;;;;;;4995198;28;20394;-79
2022/10/19 04:02:32;;;;;;;29.52;12.65;;;;;;;;;;4995604;28;20037;-79
2022/10/19 04:04:57;;;;;;;23.40;12.07;;;;;;;;;;4995853;28;20041;-78
2022/10/19 04:07:23;;;;;;;25.73;11.45;;;;;;;;;;4995110;28;20040;-78
2022/10/19 04:09:48;;;;;;;25.42;11.68;;;;;;;;;;4995297;28;20183;-78
2022/10/19 04:12:14;;;;;;;29.55;13.07;;;;;;;;;;4995855;28;20057;-78
2022/10/19 04:14:40;;;;;;;20.42;11.48;;;;;;;;;;4995770;28;20037;-79
2022/10/19 04:17:06;;;;;;;28.60;12.35;;;;;;;;;;4995587;28;20022;-78
2022/10/19 04:19:32;;;;;;;30.83;14.98;;;;;;;;;;4995222;28;20753;-79
2022/10/19 04:21:58;;;;;;;27.77;14.45;;;;;;;;;;4994931;28;20121;-79
2022/10/19 04:24:23;;;;;;;20.90;11.82;;;;;;;;;;4993592;28;20596;-78
2022/10/19 04:26:51;;;;;;;24.15;12.07;;;;;;;;;;4974818;28;20510;-79
2022/10/19 04:29:19;;;;;;;27.45;11.85;;;;;;;;;;4975353;28;20057;-77
2022/10/19 04:31:47;;;;;;;28.65;11.98;;;;;;;;;;4974954;28;20041;-78
2022/10/19 04:34:12;;;;;;;30.17;12.05;;;;;;;;;;4974737;28;20034;-78
2022/10/19 04:36:38;;;;;;;29.45;13.23;;;;;;;;;;4992519;28;20046;-78
2022/10/19 04:39:04;;;;;;;36.45;14.15;;;;;;;;;;4975092;28;20446;-78
2022/10/19 04:41:30;;;;;;;27.95;12.63;;;;;;;;;;4992047;28;20030;-77
2022/10/19 04:43:58;;;;;;;24.67;12.55;;;;;;;;;;4991975;28;20053;-79
2022/10/19 04:46:25;;;;;;;32.53;13.10;;;;;;;;;;4943619;28;20046;-78
2022/10/19 04:48:52;;;;;;;26.30;12.30;;;;;;;;;;4975261;28;20454;-78
2022/10/19 04:51:18;;;;;;;32.72;13.75;;;;;;;;;;4975670;28;20030;-79
2022/10/19 04:53:45;;;;;;;29.90;12.90;;;;;;;;;;4978042;28;20045;-80
2022/10/19 04:56:16;;;;;;;38.58;14.15;;;;;;;;;;4995379;28;20022;-78
2022/10/19 04:58:42;;;;;;;29.17;14.27;;;;;;;;;;4977302;28;20034;-78
2022/10/19 05:01:15;;;;;;;24.55;12.50;;;;;;;;;;4994844;28;20053;-80
2022/10/19 05:03:40;;;;;;;25.00;11.73;;;;;;;;;;4995004;28;20053;-78
2022/10/19 05:06:06;;;;;;;24.88;12.73;;;;;;;;;;4995049;28;20518;-78
2022/10/19 05:08:32;;;;;;;22.17;10.45;;;;;;;;;;4975995;28;20037;-79
2022/10/19 05:11:08;;;;;;;22.48;11.68;;;;;;;;;;4972640;28;20058;-73
2022/10/19 05:13:33;;;;;;;24.40;11.80;;;;;;;;;;4983910;28;20034;-79
2022/10/19 05:16:01;;;;;;;33.17;15.57;;;;;;;;;;4972563;28;20045;-76
2022/10/19 05:18:27;;;;;;;33.17;12.82;;;;;;;;;;4975885;28;20074;-77
2022/10/19 05:21:10;;;;;;;22.88;12.57;;;;;;;;;;4966614;28;20030;-77
2022/10/19 05:23:37;;;;;;;27.40;12.38;;;;;;;;;;4974677;28;20049;-77
2022/10/19 05:26:15;;;;;;;32.20;13.35;;;;;;;;;;4985187;28;20109;-76
2022/10/19 05:28:40;;;;;;;22.60;11.90;;;;;;;;;;4968480;28;20038;-78
2022/10/19 05:31:27;;;;;;;25.63;12.68;;;;;;;;;;4967829;28;20398;-77
2022/10/19 05:33:55;;;;;;;26.50;13.27;;;;;;;;;;4969860;28;20340;-77
2022/10/19 05:36:20;;;;;;;25.52;12.57;;;;;;;;;;4966978;28;20132;-78
2022/10/19 05:38:48;;;;;;;23.17;12.50;;;;;;;;;;4970510;28;20117;-78
2022/10/19 05:41:15;;;;;;;28.40;12.38;;;;;;;;;;4957563;28;20531;-76
2022/10/19 05:43:42;;;;;;;26.90;13.60;;;;;;;;;;4968787;28;20030;-77
2022/10/19 05:46:11;;;;;;;24.00;12.05;;;;;;;;;;4966297;28;20411;-78
2022/10/19 05:48:37;;;;;;;26.83;13.07;;;;;;;;;;4988248;28;20061;-77
2022/10/19 05:51:04;;;;;;;29.50;13.55;;;;;;;;;;4969616;28;20099;-76
2022/10/19 05:53:31;;;;;;;33.95;13.18;;;;;;;;;;4971907;28;20035;-79
2022/10/19 05:55:57;;;;;;;22.25;12.82;;;;;;;;;;4956220;28;20030;-76
2022/10/19 05:58:23;;;;;;;27.70;14.05;;;;;;;;;;4984966;28;20033;-77
2022/10/19 06:00:56;;;;;;;21.45;13.07;;;;;;;;;;4990464;28;20026;-75
2022/10/19 06:03:22;;;;;;;22.35;12.40;;;;;;;;;;4959878;28;20470;-77
2022/10/19 06:05:48;;;;;;;28.90;12.82;;;;;;;;;;4975062;28;20022;-75
2022/10/19 06:08:15;;;;;;;23.17;12.55;;;;;;;;;;4969678;28;20062;-76
2022/10/19 06:10:42;;;;;;;24.73;14.25;;;;;;;;;;4983586;28;20037;-78
2022/10/19 06:13:08;;;;;;;29.95;12.77;;;;;;;;;;4965337;28;20046;-77
2022/10/19 06:15:35;;;;;;;29.40;12.57;;;;;;;;;;4969407;28;21215;-80
2022/10/19 06:18:03;;;;;;;24.48;13.43;;;;;;;;;;4969740;28;20027;-77
2022/10/19 06:20:29;;;;;;;27.80;13.02;;;;;;;;;;4973151;28;20388;-77
2022/10/19 06:22:56;;;;;;;27.70;13.38;;;;;;;;;;4966771;28;20052;-77
2022/10/19 06:25:22;;;;;;;21.08;11.90;;;;;;;;;;4952642;28;20061;-76
2022/10/19 06:27:47;;;;;;;23.70;12.93;;;;;;;;;;4967763;28;20487;-78
2022/10/19 06:30:13;;;;;;;22.67;11.77;;;;;;;;;;4948846;28;20097;-78
2022/10/19 06:32:38;;;;;;;20.25;12.15;;;;;;;;;;4971178;28;20040;-78
2022/10/19 06:35:04;;;;;;;22.42;12.63;;;;;;;;;;4968262;28;20053;-78
2022/10/19 06:37:30;;;;;;;21.85;11.43;;;;;;;;;;4971514;28;20386;-76
2022/10/19 06:39:55;;;;;;;32.42;17.98;;;;;;;;;;4967996;28;20117;-76
2022/10/19 06:42:22;;;;;;;33.80;18.92;;;;;;;;;;4946831;28;20054;-78
2022/10/19 06:44:48;;;;;;;23.90;12.65;;;;;;;;;;4967647;28;20033;-78
2022/10/19 06:47:14;;;;;;;21.55;11.82;;;;;;;;;;4966089;28;20034;-79
2022/10/19 06:49:40;;;;;;;29.52;13.73;;;;;;;;;;4961644;28;20073;-77
2022/10/19 06:52:06;;;;;;;23.55;12.77;;;;;;;;;;4962049;28;20141;-80
2022/10/19 06:54:32;;;;;;;25.15;11.77;;;;;;;;;;4962122;28;20055;-81
2022/10/19 06:56:58;;;;;;;23.73;12.65;;;;;;;;;;4966244;28;20153;-76
2022/10/19 06:59:23;;;;;;;23.73;13.25;;;;;;;;;;4963391;28;20450;-79
2022/10/19 07:01:49;;;;;;;23.58;12.43;;;;;;;;;;4957664;28;20031;-75
2022/10/19 07:04:14;;;;;;;23.80;13.95;;;;;;;;;;4964038;28;20045;-81
2022/10/19 07:06:40;;;;;;;25.52;12.35;;;;;;;;;;4967109;28;20458;-78
2022/10/19 07:09:05;;;;;;;23.15;12.00;;;;;;;;;;4968397;28;20882;-80
2022/10/19 07:11:31;;;;;;;28.95;12.40;;;;;;;;;;4967315;28;20490;-78
2022/10/19 07:13:56;;;;;;;25.23;11.07;;;;;;;;;;4968983;28;20145;-79
2022/10/19 07:16:22;;;;;;;24.15;11.27;;;;;;;;;;4965059;28;20053;-79
2022/10/19 07:18:50;;;;;;;26.60;11.65;;;;;;;;;;4981490;28;20026;-82
2022/10/19 07:21:17;;;;;;;18.88;10.52;;;;;;;;;;4965436;28;20030;-78
2022/10/19 07:23:45;;;;;;;23.02;12.35;;;;;;;;;;4972622;28;20054;-79
2022/10/19 07:26:25;;;;;;;18.30;9.60;;;;;;;;;;4970190;28;20056;-78
2022/10/19 07:28:52;;;;;;;18.15;9.60;;;;;;;;;;4972826;28;20042;-77
2022/10/19 07:31:19;;;;;;;19.80;10.00;;;;;;;;;;4976313;28;20034;-76
2022/10/19 07:33:46;;;;;;;28.42;10.55;;;;;;;;;;4973729;28;20033;-77
2022/10/19 07:36:13;;;;;;;21.02;9.32;;;;;;;;;;4976264;28;20432;-76
2022/10/19 07:38:39;;;;;;;22.02;9.25;;;;;;;;;;4971283;28;20046;-79
2022/10/19 07:41:07;;;;;;;19.13;8.55;;;;;;;;;;4968173;28;20447;-78
2022/10/19 07:43:33;;;;;;;16.73;9.07;;;;;;;;;;4965818;28;20034;-78
2022/10/19 07:46:05;;;;;;;18.73;9.52;;;;;;;;;;4991567;28;20030;-77
2022/10/19 07:48:30;;;;;;;20.50;8.93;;;;;;;;;;4970486;28;20298;-82
2022/10/19 07:50:56;;;;;;;21.48;9.70;;;;;;;;;;4972011;28;20034;-77
2022/10/19 07:53:22;;;;;;;16.40;9.02;;;;;;;;;;4968469;28;20122;-77
2022/10/19 07:55:48;;;;;;;18.98;8.95;;;;;;;;;;4973334;28;20045;-77
2022/10/19 07:58:14;;;;;;;19.60;9.15;;;;;;;;;;4972857;28;20029;-77
2022/10/19 08:00:39;;;;;;;18.90;9.27;;;;;;;;;;4976226;28;20072;-78
2022/10/19 08:03:05;;;;;;;20.63;9.90;;;;;;;;;;4969211;28;20062;-77
2022/10/19 08:05:34;;;;;;;17.42;8.80;;;;;;;;;;4969375;28;20031;-76
2022/10/19 08:08:00;;;;;;;21.48;9.05;;;;;;;;;;4968679;28;20049;-77
2022/10/19 08:10:25;;;;;;;25.02;9.23;;;;;;;;;;4968623;28;20030;-77
2022/10/19 08:12:51;;;;;;;20.33;11.75;;;;;;;;;;4972295;28;20042;-77
2022/10/19 08:15:17;;;;;;;22.60;9.00;;;;;;;;;;4947797;28;20050;-74
2022/10/19 08:17:43;;;;;;;24.92;9.18;;;;;;;;;;4968417;28;20022;-76
2022/10/19 08:20:09;;;;;;;18.38;9.07;;;;;;;;;;4966689;28;20030;-76
2022/10/19 08:22:34;;;;;;;21.20;8.15;;;;;;;;;;4986804;28;20120;-77
2022/10/19 08:25:00;;;;;;;12.73;7.45;;;;;;;;;;4965994;28;20498;-76
2022/10/19 08:27:27;;;;;;;16.27;7.90;;;;;;;;;;4971201;28;20038;-77
2022/10/19 08:29:54;;;;;;;16.90;6.93;;;;;;;;;;4969444;28;20065;-76
2022/10/19 08:32:19;;;;;;;14.63;7.38;;;;;;;;;;4969795;28;20040;-77
2022/10/19 08:34:45;;;;;;;13.15;6.60;;;;;;;;;;4959579;28;20038;-75
2022/10/19 08:37:11;;;;;;;17.63;6.85;;;;;;;;;;4966753;28;20126;-76
2022/10/19 08:39:36;;;;;;;17.48;6.03;;;;;;;;;;4970712;28;20069;-76
2022/10/19 08:42:02;;;;;;;15.25;5.60;;;;;;;;;;4968541;28;20035;-77
2022/10/19 08:44:42;;;;;;;14.82;5.82;;;;;;;;;;4966764;28;20030;-77
2022/10/19 08:47:26;;;;;;;17.15;8.65;;;;;;;;;;4967630;28;20038;-77
2022/10/19 08:49:54;;;;;;;10.75;5.28;;;;;;;;;;4964367;28;20052;-78
2022/10/19 08:52:27;;;;;;;12.10;5.47;;;;;;;;;;4964299;28;20432;-76
2022/10/19 08:55:00;;;;;;;13.27;5.00;;;;;;;;;;4958877;28;20035;-76
2022/10/19 08:58:04;;;;;;;16.35;5.25;;;;;;;;;;4968257;28;20053;-76
2022/10/19 09:00:58;;;;;;;13.50;4.20;;;;;;;;;;4965854;28;20058;-77
2022/10/19 09:03:43;;;;;;;9.10;4.28;;;;;;;;;;4968217;28;21092;-76
2022/10/19 09:06:33;;;;;;;8.85;3.83;;;;;;;;;;4973322;28;20030;-77
2022/10/19 09:09:00;;;;;;;14.40;4.07;;;;;;;;;;4966263;28;20117;-77
2022/10/19 09:11:38;;;;;;;7.53;3.45;;;;;;;;;;4968387;28;20690;-78
2022/10/19 09:14:06;;;;;;;11.05;4.80;;;;;;;;;;4968043;28;20062;-77
2022/10/19 09:16:34;;;;;;;10.38;4.30;;;;;;;;;;4971188;28;20054;-80
2022/10/19 09:19:01;;;;;;;8.90;3.88;;;;;;;;;;4970095;28;20030;-78
2022/10/19 09:21:50;;;;;;;8.10;4.25;;;;;;;;;;4969384;28;20034;-72
2022/10/19 09:24:34;;;;;;;11.98;3.80;;;;;;;;;;4961949;28;20046;-79
2022/10/19 09:27:01;;;;;;;9.85;4.25;;;;;;;;;;4963289;28;20058;-77
2022/10/19 09:29:56;;;;;;;10.38;4.78;;;;;;;;;;4969691;28;20063;-78
2022/10/19 09:32:29;;;;;;;15.68;3.95;;;;;;;;;;4957060;28;20715;-78
2022/10/19 09:35:27;;;;;;;9.48;4.28;;;;;;;;;;4961662;28;20076;-77
2022/10/19 09:37:54;;;;;;;13.65;4.68;;;;;;;;;;4950209;28;20057;-80
2022/10/19 09:40:23;;;;;;;7.85;4.07;;;;;;;;;;4968267;28;20794;-78
2022/10/19 09:43:31;;;;;;;9.85;4.30;;;;;;;;;;4964983;28;20042;-81
2022/10/19 09:45:43;;;;;;;10.73;4.00;;;;;;;;;;4960438;28;20081;-81
2022/10/19 09:48:24;;;;;;;13.63;3.90;;;;;;;;;;4971518;28;20050;-85
2022/10/19 09:50:54;;;;;;;13.75;3.85;;;;;;;;;;4964430;28;20053;-83
2022/10/19 09:53:21;;;;;;;11.73;4.67;;;;;;;;;;4969651;28;20030;-83
2022/10/19 09:55:56;;;;;;;10.52;4.53;;;;;;;;;;4968132;28;20037;-79
2022/10/19 09:58:27;;;;;;;6.18;3.67;;;;;;;;;;4964146;28;20045;-81
2022/10/19 10:00:54;;;;;;;7.38;3.50;;;;;;;;;;4971419;28;20121;-78
2022/10/19 10:03:34;;;;;;;11.00;3.58;;;;;;;;;;4945350;28;20047;-79
2022/10/19 10:06:13;;;;;;;8.10;3.60;;;;;;;;;;4969622;28;20072;-82
2022/10/19 10:08:49;;;;;;;5.65;3.45;;;;;;;;;;4968059;28;20062;-79
2022/10/19 10:11:30;;;;;;;17.35;4.47;;;;;;;;;;4973544;28;20052;-81
2022/10/19 10:13:59;;;;;;;9.95;4.00;;;;;;;;;;4968761;28;20034;-78
2022/10/19 10:16:34;;;;;;;11.73;5.60;;;;;;;;;;4981806;28;20367;-80
2022/10/19 10:19:06;;;;;;;8.02;4.10;;;;;;;;;;4975902;28;20030;-77
2022/10/19 10:21:44;;;;;;;12.68;4.07;;;;;;;;;;4973840;28;20034;-78
2022/10/19 10:24:10;;;;;;;5.72;3.08;;;;;;;;;;4971777;28;20060;-80
2022/10/19 10:27:03;;;;;;;10.27;2.90;;;;;;;;;;4973005;28;20464;-80
2022/10/19 10:29:38;;;;;;;4.82;2.28;;;;;;;;;;4952428;28;20119;-79
2022/10/19 10:32:09;;;;;;;3.88;2.13;;;;;;;;;;4973354;28;20035;-79
2022/10/19 10:34:39;;;;;;;10.63;2.90;;;;;;;;;;4966868;28;20035;-75
2022/10/19 10:37:12;;;;;;;8.20;2.72;;;;;;;;;;4974177;28;20022;-79
2022/10/19 10:39:42;;;;;;;9.70;2.22;;;;;;;;;;4977336;28;20114;-83
2022/10/19 10:42:16;;;;;;;7.43;2.80;;;;;;;;;;4975885;28;20035;-79
2022/10/19 10:44:50;;;;;;;5.65;2.90;;;;;;;;;;4972599;28;20545;-82
2022/10/19 10:47:19;;;;;;;8.88;2.63;;;;;;;;;;4980769;28;20732;-78
2022/10/19 10:50:05;;;;;;;15.95;3.50;;;;;;;;;;4972440;28;20113;-81
2022/10/19 10:52:31;;;;;;;6.30;2.25;;;;;;;;;;4959004;28;20041;-79
2022/10/19 10:55:00;;;;;;;11.48;3.10;;;;;;;;;;4971586;28;20034;-79
2022/10/19 10:57:42;;;;;;;8.18;2.00;;;;;;;;;;4974339;28;20029;-77
2022/10/19 11:00:15;;;;;;;9.32;3.08;;;;;;;;;;4976522;28;20041;-78
2022/10/19 11:03:00;;;;;;;8.57;2.75;;;;;;;;;;4978150;28;20106;-79
2022/10/19 11:05:38;;;;;;;8.57;2.80;;;;;;;;;;4973846;28;20073;-77
2022/10/19 11:08:25;;;;;;;5.05;2.78;;;;;;;;;;4978110;28;20034;-79
2022/10/19 11:11:16;;;;;;;11.95;3.90;;;;;;;;;;4975758;28;20510;-80
2022/10/19 11:13:49;;;;;;;12.60;3.58;;;;;;;;;;4974971;28;20032;-80
2022/10/19 11:16:22;;;;;;;13.82;5.28;;;;;;;;;;4976116;28;20053;-79
2022/10/19 11:18:53;;;;;;;5.30;2.72;;;;;;;;;;4959670;28;20042;-80
2022/10/19 11:21:30;;;;;;;8.18;2.30;;;;;;;;;;4976033;28;20042;-80
2022/10/19 11:24:22;;;;;;;11.32;2.55;;;;;;;;;;4977384;28;20068;-80
2022/10/19 11:27:07;;;;;;;4.28;2.10;;;;;;;;;;4975946;28;20113;-80
2022/10/19 11:30:08;;;;;;;9.05;2.35;;;;;;;;;;4978564;28;20053;-79
2022/10/19 11:32:40;;;;;;;16.13;8.00;;;;;;;;;;4979982;28;20039;-79
2022/10/19 11:35:32;;;;;;;8.07;1.90;;;;;;;;;;4979226;28;20805;-80
2022/10/19 11:38:26;;;;;;;5.72;2.67;;;;;;;;;;4984000;28;20039;-79
2022/10/19 11:41:11;;;;;;;7.47;2.05;;;;;;;;;;4965941;28;20034;-78
2022/10/19 11:43:48;;;;;;;9.85;2.05;;;;;;;;;;4976398;28;20034;-78
2022/10/19 11:46:47;;;;;;;5.57;1.83;;;;;;;;;;4986533;28;20098;-81
2022/10/19 11:49:18;;;;;;;8.98;2.20;;;;;;;;;;4974000;28;20030;-80
2022/10/19 11:52:00;;;;;;;10.82;2.90;;;;;;;;;;4975128;28;20077;-79
2022/10/19 11:54:47;;;;;;;10.38;3.40;;;;;;;;;;4971565;28;20042;-79
2022/10/19 11:57:44;;;;;;;3.03;1.80;;;;;;;;;;4972632;28;20121;-75
2022/10/19 12:00:15;;;;;;;8.80;2.10;;;;;;;;;;4973915;28;20031;-76
2022/10/19 12:02:58;;;;;;;4.60;1.80;;;;;;;;;;4975304;28;20038;-76
2022/10/19 12:05:50;;;;;;;9.38;2.15;;;;;;;;;;4976577;28;20029;-79
2022/10/19 12:08:33;;;;;;;5.68;2.10;;;;;;;;;;4973350;28;20023;-77
2022/10/19 12:11:26;;;;;;;9.13;3.22;;;;;;;;;;4971360;28;20121;-79
2022/10/19 12:13:58;;;;;;;7.07;2.35;;;;;;;;;;4969844;28;20133;-78
2022/10/19 12:16:55;;;;;;;5.50;2.45;;;;;;;;;;4970538;28;20049;-79
2022/10/19 12:19:25;;;;;;;3.95;1.63;;;;;;;;;;4968240;28;20137;-79
2022/10/19 12:21:57;;;;;;;5.07;1.63;;;;;;;;;;4968171;28;20042;-79
2022/10/19 12:24:24;;;;;;;4.97;1.63;;;;;;;;;;4969032;28;20246;-79
2022/10/19 12:26:52;;;;;;;4.32;1.80;;;;;;;;;;4972292;28;20318;-77
2022/10/19 12:29:26;;;;;;;4.63;1.65;;;;;;;;;;4971145;28;20399;-79
2022/10/19 12:31:55;;;;;;;3.60;1.52;;;;;;;;;;4971701;28;20030;-78
2022/10/19 12:34:33;;;;;;;4.18;1.80;;;;;;;;;;4974477;28;20069;-79
2022/10/19 12:37:17;;;;;;;9.18;2.35;;;;;;;;;;4977487;28;20034;-80
2022/10/19 12:39:57;;;;;;;6.10;1.88;;;;;;;;;;4975537;28;20039;-79
2022/10/19 12:42:54;;;;;;;4.25;1.67;;;;;;;;;;4972455;28;20043;-76
2022/10/19 12:45:37;;;;;;;8.73;1.65;;;;;;;;;;4962308;28;20050;-76
2022/10/19 12:48:11;;;;;;;4.72;1.63;;;;;;;;;;4973182;28;20034;-78
2022/10/19 12:50:52;;;;;;;7.65;1.70;;;;;;;;;;4967807;28;20363;-79
2022/10/19 12:53:25;;;;;;;1.77;1.48;;;;;;;;;;4974878;28;20356;-78
2022/10/19 12:56:17;;;;;;;8.60;1.73;;;;;;;;;;4969633;28;20466;-78
2022/10/19 12:58:49;;;;;;;4.13;1.60;;;;;;;;;;4973669;28;20339;-79
2022/10/19 13:01:40;;;;;;;;;;;;;;;;;;4977748;28;20033;-77
2022/10/19 13:04:12;;;;;;;3.92;1.80;;;;;;;;;;4968012;28;19917;-76
2022/10/19 13:07:06;;;;;;;4.15;2.60;;;;;;;;;;4971545;28;20043;-80
2022/10/19 13:09:35;;;;;;;5.13;2.38;;;;;;;;;;4967087;28;20030;-76
2022/10/19 13:12:13;;;;;;;15.82;5.57;;;;;;;;;;4970167;28;20093;-77
2022/10/19 13:14:54;;;;;;;8.77;2.78;;;;;;;;;;4976911;28;20034;-76
2022/10/19 13:17:49;;;;;;;9.32;2.42;;;;;;;;;;4976462;28;20565;-76
2022/10/19 13:20:17;;;;;;;4.50;1.48;;;;;;;;;;4980296;28;20038;-75
2022/10/19 13:22:47;;;;;;;3.65;1.98;;;;;;;;;;4983646;28;20109;-77
2022/10/19 13:25:20;;;;;;;6.78;2.58;;;;;;;;;;4962506;28;20066;-76
2022/10/19 13:27:51;;;;;;;5.20;1.80;;;;;;;;;;4977550;28;20054;-79
2022/10/19 13:30:38;;;;;;;4.18;1.67;;;;;;;;;;4976119;28;20118;-76
2022/10/19 13:33:29;;;;;;;7.53;2.40;;;;;;;;;;4973845;28;20031;-77
2022/10/19 13:35:57;;;;;;;6.63;1.90;;;;;;;;;;4964960;28;20699;-75
2022/10/19 13:38:38;;;;;;;11.77;2.28;;;;;;;;;;4966711;28;20042;-77
2022/10/19 13:41:24;;;;;;;5.47;2.20;;;;;;;;;;4967447;28;20034;-76
2022/10/19 13:44:14;;;;;;;5.07;1.92;;;;;;;;;;4984104;28;20027;-74
2022/10/19 13:47:04;;;;;;;6.35;1.52;;;;;;;;;;4973797;28;20042;-77
2022/10/19 13:49:54;;;;;;;7.45;2.30;;;;;;;;;;4973881;28;20094;-75
2022/10/19 13:52:38;;;;;;;4.22;1.90;;;;;;;;;;4978156;28;20022;-76
2022/10/19 13:55:32;;;;;;;4.68;2.30;;;;;;;;;;4976267;28;20035;-75
2022/10/19 13:58:23;;;;;;;3.58;1.85;;;;;;;;;;4965540;28;20038;-77
2022/10/19 14:01:03;;;;;;;7.45;1.83;;;;;;;;;;4976321;28;20138;-76
2022/10/19 14:03:38;;;;;;;7.75;1.55;;;;;;;;;;4963181;28;20054;-75
2022/10/19 14:06:55;;;;;;;4.82;1.63;;;;;;;;;;4973099;28;20575;-77
2022/10/19 14:09:49;;;;;;;5.70;2.08;;;;;;;;;;4956042;28;20182;-76
2022/10/19 14:12:25;;;;;;;4.97;2.03;;;;;;;;;;4975958;28;20037;-77
2022/10/19 14:14:54;;;;;;;4.38;1.80;;;;;;;;;;4967804;28;20071;-75
2022/10/19 14:17:34;;;;;;;7.78;2.40;;;;;;;;;;4975671;28;20083;-76
2022/10/19 14:20:00;;;;;;;2.10;1.17;;;;;;;;;;4976180;28;20041;-77
2022/10/19 14:22:37;;;;;;;4.75;1.92;;;;;;;;;;4979177;28;20109;-79
2022/10/19 14:25:16;;;;;;;6.32;1.90;;;;;;;;;;4987121;28;20054;-78
2022/10/19 14:27:42;;;;;;;7.70;1.80;;;;;;;;;;4986450;28;20094;-78
2022/10/19 14:30:37;;;;;;;2.13;1.42;;;;;;;;;;4975995;28;20035;-81
2022/10/19 14:33:09;;;;;;;2.88;1.52;;;;;;;;;;4959224;28;20088;-79
2022/10/19 14:35:37;;;;;;;3.08;1.60;;;;;;;;;;4965876;28;20062;-80
2022/10/19 14:38:08;;;;;;;3.40;1.65;;;;;;;;;;4969636;28;20106;-79
2022/10/19 14:40:40;;;;;;;3.53;1.88;;;;;;;;;;4973415;28;20559;-79
2022/10/19 14:43:30;;;;;;;5.88;1.60;;;;;;;;;;4973372;28;20039;-77
2022/10/19 14:46:07;;;;;;;2.13;1.55;;;;;;;;;;4975419;28;20034;-79
2022/10/19 14:48:44;;;;;;;6.05;1.98;;;;;;;;;;4966304;28;20023;-78
2022/10/19 14:51:21;;;;;;;7.65;1.42;;;;;;;;;;4969643;28;20045;-79
2022/10/19 14:53:55;;;;;;;2.15;1.05;;;;;;;;;;4956384;28;20058;-80
2022/10/19 14:56:31;;;;;;;7.22;1.33;;;;;;;;;;4968808;28;20079;-80
2022/10/19 14:59:01;;;;;;;6.25;2.85;;;;;;;;;;4955458;28;20690;-80
2022/10/19 15:01:27;;;;;;;5.68;1.50;;;;;;;;;;4954001;28;20047;-80